createdAt,value
2023-03-07T00:01:05.915Z,11.70
2023-03-07T00:03:32.997Z,14.33
2023-03-07T00:06:08.513Z,16.40
2023-03-07T00:08:35.430Z,13.40
2023-03-07T00:11:09.171Z,15.80
2023-03-07T00:13:37.964Z,14.87
2023-03-07T00:16:10.603Z,16.60
2023-03-07T00:18:37.471Z,16.27
2023-03-07T00:21:06.738Z,15.97
2023-03-07T00:23:38.489Z,17.90
2023-03-07T00:26:16.738Z,19.30
2023-03-07T00:28:45.773Z,21.00
2023-03-07T00:31:12.580Z,18.80
2023-03-07T00:33:39.811Z,18.97
2023-03-07T00:36:16.097Z,23.50
2023-03-07T00:38:43.270Z,18.67
2023-03-07T00:41:20.542Z,20.63
2023-03-07T00:43:47.607Z,19.60
2023-03-07T00:46:15.830Z,19.47
2023-03-07T00:48:42.710Z,20.97
2023-03-07T00:51:12.126Z,22.60
2023-03-07T00:53:39.744Z,21.03
2023-03-07T00:56:12.283Z,20.27
2023-03-07T00:58:39.062Z,20.47
2023-03-07T01:01:07.576Z,20.70
2023-03-07T01:03:35.289Z,21.67
2023-03-07T01:06:07.720Z,17.20
2023-03-07T01:08:35.254Z,19.33
2023-03-07T01:11:04.299Z,23.40
2023-03-07T01:13:32.258Z,20.03
2023-03-07T01:16:11.853Z,20.93
2023-03-07T01:18:39.530Z,22.27
2023-03-07T01:21:18.525Z,21.60
2023-03-07T01:23:45.920Z,23.70
2023-03-07T01:26:24.202Z,27.37
2023-03-07T01:28:52.536Z,23.93
2023-03-07T01:31:23.807Z,21.80
2023-03-07T01:33:52.696Z,21.57
2023-03-07T01:36:31.213Z,22.90
2023-03-07T01:39:06.355Z,23.57
2023-03-07T01:41:34.773Z,24.30
2023-03-07T01:44:02.584Z,22.07
2023-03-07T01:46:33.127Z,20.10
2023-03-07T01:49:09.513Z,22.00
2023-03-07T01:51:39.600Z,24.50
2023-03-07T01:54:09.208Z,23.17
2023-03-07T01:56:38.083Z,25.90
2023-03-07T01:59:05.640Z,26.53
2023-03-07T02:01:33.491Z,28.23
2023-03-07T02:04:10.800Z,24.00
2023-03-07T02:06:39.029Z,30.53
2023-03-07T02:09:13.289Z,26.97
2023-03-07T02:11:44.576Z,29.77
2023-03-07T02:14:11.191Z,31.63
2023-03-07T02:16:39.108Z,31.03
2023-03-07T02:19:31.218Z,31.83
2023-03-07T02:22:09.027Z,31.37
2023-03-07T02:25:00.613Z,35.33
2023-03-07T02:27:29.257Z,34.83
2023-03-07T02:29:56.113Z,36.73
2023-03-07T02:32:23.004Z,39.03
2023-03-07T02:34:49.722Z,36.87
2023-03-07T02:37:22.172Z,35.37
2023-03-07T02:39:49.753Z,39.43
2023-03-07T02:42:29.172Z,39.63
2023-03-07T02:45:00.990Z,39.50
2023-03-07T02:47:28.569Z,38.83
2023-03-07T02:49:55.739Z,42.77
2023-03-07T02:52:23.132Z,41.57
2023-03-07T02:54:49.835Z,46.40
2023-03-07T02:57:17.114Z,45.63
2023-03-07T02:59:43.881Z,41.87
2023-03-07T03:02:10.627Z,40.73
2023-03-07T03:04:37.405Z,37.13
2023-03-07T03:07:04.276Z,42.00
2023-03-07T03:09:31.586Z,38.63
2023-03-07T03:11:58.657Z,35.67
2023-03-07T03:14:25.453Z,34.83
2023-03-07T03:16:53.414Z,41.10
2023-03-07T03:19:20.839Z,37.10
2023-03-07T03:21:48.715Z,39.37
2023-03-07T03:24:15.528Z,40.07
2023-03-07T03:26:42.272Z,35.10
2023-03-07T03:29:09.813Z,38.53
2023-03-07T03:31:36.832Z,32.77
2023-03-07T03:34:05.619Z,34.17
2023-03-07T03:36:32.641Z,31.47
2023-03-07T03:38:59.929Z,25.97
2023-03-07T03:41:26.896Z,23.07
2023-03-07T03:43:54.031Z,27.63
2023-03-07T03:46:20.851Z,23.17
2023-03-07T03:48:53.408Z,27.47
2023-03-07T03:51:20.372Z,24.57
2023-03-07T03:53:47.077Z,30.13
2023-03-07T03:56:17.946Z,26.60
2023-03-07T03:58:47.322Z,29.47
2023-03-07T04:01:14.186Z,27.97
2023-03-07T04:03:43.712Z,25.50
2023-03-07T04:06:14.010Z,20.20
2023-03-07T04:08:41.520Z,23.53
2023-03-07T04:11:08.466Z,18.90
2023-03-07T04:13:35.928Z,24.10
2023-03-07T04:16:03.114Z,19.90
2023-03-07T04:18:29.977Z,22.80
2023-03-07T04:20:57.034Z,23.33
2023-03-07T04:23:25.233Z,21.80
2023-03-07T04:26:03.023Z,17.73
2023-03-07T04:28:45.445Z,16.57
2023-03-07T04:31:18.754Z,19.90
2023-03-07T04:33:46.610Z,20.63
2023-03-07T04:36:16.297Z,22.73
2023-03-07T04:38:43.435Z,21.20
2023-03-07T04:41:19.297Z,17.23
2023-03-07T04:43:46.792Z,21.93
2023-03-07T04:46:16.231Z,22.43
2023-03-07T04:48:43.213Z,18.20
2023-03-07T04:51:09.953Z,17.70
2023-03-07T04:53:36.646Z,16.93
2023-03-07T04:56:05.973Z,14.63
2023-03-07T04:58:33.827Z,14.10
2023-03-07T05:01:01.802Z,22.13
2023-03-07T05:03:29.500Z,14.53
2023-03-07T05:05:56.366Z,28.67
2023-03-07T05:08:23.146Z,18.23
2023-03-07T05:10:49.886Z,14.57
2023-03-07T05:13:16.639Z,14.43
2023-03-07T05:15:44.004Z,12.53
2023-03-07T05:18:10.649Z,11.33
2023-03-07T05:20:38.120Z,12.90
2023-03-07T05:23:04.756Z,9.80
2023-03-07T05:25:31.694Z,14.10
2023-03-07T05:27:58.404Z,18.67
2023-03-07T05:30:25.381Z,11.27
2023-03-07T05:32:52.057Z,8.80
2023-03-07T05:35:19.192Z,9.57
2023-03-07T05:37:45.894Z,12.10
2023-03-07T05:40:16.144Z,10.67
2023-03-07T05:42:42.996Z,14.43
2023-03-07T05:45:11.182Z,11.77
2023-03-07T05:47:38.926Z,9.83
2023-03-07T05:50:06.536Z,16.40
2023-03-07T05:52:33.266Z,12.20
2023-03-07T05:55:02.745Z,12.33
2023-03-07T05:57:29.469Z,9.40
2023-03-07T05:59:56.220Z,15.03
2023-03-07T06:02:22.946Z,13.47
2023-03-07T06:04:49.792Z,6.73
2023-03-07T06:07:16.642Z,11.10
2023-03-07T06:09:43.496Z,11.83
2023-03-07T06:12:11.296Z,11.10
2023-03-07T06:14:38.014Z,8.13
2023-03-07T06:17:05.725Z,10.30
2023-03-07T06:19:32.652Z,11.30
2023-03-07T06:21:59.933Z,5.97
2023-03-07T06:24:26.590Z,10.30
2023-03-07T06:26:53.278Z,10.27
2023-03-07T06:29:19.989Z,14.83
2023-03-07T06:31:46.856Z,8.17
2023-03-07T06:34:13.621Z,12.37
2023-03-07T06:36:40.494Z,16.20
2023-03-07T06:39:07.591Z,14.23
2023-03-07T06:41:34.488Z,13.07
2023-03-07T06:44:01.159Z,10.00
2023-03-07T06:46:27.950Z,13.60
2023-03-07T06:48:55.647Z,19.77
2023-03-07T06:51:22.399Z,10.60
2023-03-07T06:53:49.100Z,17.07
2023-03-07T06:56:15.835Z,14.57
2023-03-07T06:58:42.487Z,21.93
2023-03-07T07:01:16.128Z,17.37
2023-03-07T07:03:43.148Z,11.90
2023-03-07T07:06:09.843Z,17.07
2023-03-07T07:08:36.568Z,17.60
2023-03-07T07:11:03.369Z,17.67
2023-03-07T07:13:30.380Z,17.27
2023-03-07T07:15:58.732Z,16.47
2023-03-07T07:18:25.368Z,8.37
2023-03-07T07:20:55.948Z,15.60
2023-03-07T07:23:22.679Z,13.63
2023-03-07T07:25:49.423Z,16.27
2023-03-07T07:28:16.162Z,14.20
2023-03-07T07:30:43.174Z,19.70
2023-03-07T07:33:09.998Z,19.13
2023-03-07T07:35:36.991Z,19.37
2023-03-07T07:38:03.867Z,9.83
2023-03-07T07:40:31.015Z,6.77
2023-03-07T07:42:57.613Z,11.43
2023-03-07T07:45:24.553Z,17.30
2023-03-07T07:47:52.017Z,12.33
2023-03-07T07:50:20.602Z,10.87
2023-03-07T07:52:48.189Z,21.33
2023-03-07T07:55:15.430Z,12.87
2023-03-07T07:57:42.530Z,16.67
2023-03-07T08:00:11.532Z,8.93
2023-03-07T08:02:39.718Z,10.23
2023-03-07T08:05:13.042Z,16.33
2023-03-07T08:07:39.646Z,8.27
2023-03-07T08:10:06.991Z,16.07
2023-03-07T08:12:33.631Z,12.60
2023-03-07T08:15:00.483Z,8.40
2023-03-07T08:17:29.543Z,11.53
2023-03-07T08:20:03.478Z,7.50
2023-03-07T08:22:30.345Z,8.40
2023-03-07T08:24:57.021Z,10.10
2023-03-07T08:27:23.670Z,10.07
2023-03-07T08:29:50.459Z,9.60
2023-03-07T08:32:17.295Z,8.13
2023-03-07T08:34:44.039Z,11.50
2023-03-07T08:37:10.810Z,6.63
2023-03-07T08:39:37.521Z,8.27
2023-03-07T08:42:04.406Z,6.10
2023-03-07T08:44:31.221Z,12.23
2023-03-07T08:46:57.972Z,14.80
2023-03-07T08:49:24.950Z,16.00
2023-03-07T08:51:51.648Z,7.90
2023-03-07T08:54:18.547Z,8.37
2023-03-07T08:56:45.398Z,8.80
2023-03-07T08:59:12.132Z,8.63
2023-03-07T09:01:41.078Z,13.77
2023-03-07T09:04:07.905Z,9.10
2023-03-07T09:06:35.989Z,6.13
2023-03-07T09:09:02.729Z,8.40
2023-03-07T09:11:29.864Z,13.00
2023-03-07T09:13:56.690Z,9.77
2023-03-07T09:16:23.805Z,7.37
2023-03-07T09:18:50.778Z,4.40
2023-03-07T09:21:17.515Z,8.60
2023-03-07T09:23:44.238Z,11.77
2023-03-07T09:26:10.983Z,9.80
2023-03-07T09:28:37.637Z,10.00
2023-03-07T09:31:12.763Z,7.77
2023-03-07T09:33:40.374Z,8.60
2023-03-07T09:36:08.761Z,9.73
2023-03-07T09:38:35.945Z,6.27
2023-03-07T09:41:26.997Z,9.33
2023-03-07T09:44:18.746Z,8.00
2023-03-07T09:47:00.671Z,3.10
2023-03-07T09:49:37.228Z,4.37
2023-03-07T09:52:13.029Z,3.33
2023-03-07T09:55:03.185Z,2.90
2023-03-07T09:57:33.053Z,5.27
2023-03-07T10:00:17.195Z,7.37
2023-03-07T10:02:50.070Z,7.07
2023-03-07T10:05:38.776Z,7.80
2023-03-07T10:08:06.838Z,4.30
2023-03-07T10:10:36.407Z,5.27
2023-03-07T10:13:21.769Z,4.50
2023-03-07T10:15:54.279Z,4.83
2023-03-07T10:18:39.856Z,1.70
2023-03-07T10:21:20.642Z,5.80
2023-03-07T10:23:59.357Z,10.07
2023-03-07T10:26:28.930Z,6.90
2023-03-07T10:28:59.125Z,7.57
2023-03-07T10:31:39.704Z,6.47
2023-03-07T10:34:27.275Z,3.93
2023-03-07T10:37:35.839Z,5.17
2023-03-07T10:40:04.954Z,6.73
2023-03-07T10:42:37.198Z,3.10
2023-03-07T10:45:04.093Z,4.67
2023-03-07T10:47:30.966Z,4.17
2023-03-07T10:50:35.847Z,4.93
2023-03-07T10:53:04.641Z,7.80
2023-03-07T10:55:39.727Z,5.77
2023-03-07T10:58:26.163Z,2.83
2023-03-07T11:01:17.087Z,5.40
2023-03-07T11:03:55.871Z,8.57
2023-03-07T11:06:44.617Z,7.07
2023-03-07T11:09:16.907Z,3.00
2023-03-07T11:11:49.154Z,10.07
2023-03-07T11:14:18.771Z,10.57
2023-03-07T11:16:51.824Z,6.63
2023-03-07T11:19:35.792Z,10.63
2023-03-07T11:22:16.059Z,5.03
2023-03-07T11:24:58.761Z,5.97
2023-03-07T11:27:47.166Z,8.80
2023-03-07T11:30:52.075Z,4.83
2023-03-07T11:33:21.747Z,5.13
2023-03-07T11:36:16.779Z,5.13
2023-03-07T11:39:09.797Z,7.07
2023-03-07T11:41:40.380Z,5.37
2023-03-07T11:44:16.325Z,5.77
2023-03-07T11:46:55.222Z,5.53
2023-03-07T11:49:28.047Z,8.73
2023-03-07T11:52:30.898Z,5.57
2023-03-07T11:55:16.280Z,7.40
2023-03-07T11:58:01.301Z,6.57
2023-03-07T12:00:45.459Z,4.47
2023-03-07T12:04:20.179Z,6.17
2023-03-07T12:07:12.237Z,6.60
2023-03-07T12:09:58.420Z,9.73
2023-03-07T12:12:50.813Z,4.27
2023-03-07T12:15:29.154Z,5.73
2023-03-07T12:18:14.576Z,6.27
2023-03-07T12:21:03.559Z,9.27
2023-03-07T12:23:33.903Z,6.57
2023-03-07T12:26:09.235Z,12.93
2023-03-07T12:28:44.149Z,8.43
2023-03-07T12:31:16.855Z,7.87
2023-03-07T12:33:49.174Z,11.47
2023-03-07T12:36:36.096Z,6.17
2023-03-07T12:39:10.612Z,6.63
2023-03-07T12:41:50.274Z,6.40
2023-03-07T12:44:43.248Z,8.67
2023-03-07T12:47:38.257Z,6.37
2023-03-07T12:50:22.603Z,4.00
2023-03-07T12:52:55.274Z,3.60
2023-03-07T12:55:47.169Z,5.60
2023-03-07T12:58:35.595Z,3.67
2023-03-07T13:01:13.978Z,3.73
2023-03-07T13:03:53.732Z,8.00
2023-03-07T13:06:23.068Z,7.83
2023-03-07T13:09:00.088Z,6.50
2023-03-07T13:11:29.636Z,5.93
2023-03-07T13:13:56.963Z,7.87
2023-03-07T13:16:54.752Z,4.10
2023-03-07T13:19:36.895Z,3.73
2023-03-07T13:22:30.696Z,5.33
2023-03-07T13:25:20.293Z,4.63
2023-03-07T13:27:51.449Z,3.67
2023-03-07T13:30:27.306Z,3.93
2023-03-07T13:32:54.447Z,4.33
2023-03-07T13:35:24.228Z,3.87
2023-03-07T13:38:28.389Z,6.93
2023-03-07T13:40:58.464Z,5.17
2023-03-07T13:43:27.877Z,2.43
2023-03-07T13:45:56.878Z,9.07
2023-03-07T13:48:26.704Z,1.80
2023-03-07T13:50:56.294Z,1.63
2023-03-07T13:53:30.065Z,2.97
2023-03-07T13:56:35.397Z,2.17
2023-03-07T13:59:24.652Z,9.23
2023-03-07T14:02:08.859Z,5.00
2023-03-07T14:04:41.061Z,5.03
2023-03-07T14:07:28.375Z,3.60
2023-03-07T14:10:19.676Z,4.37
2023-03-07T14:13:21.758Z,3.97
2023-03-07T14:16:13.281Z,5.90
2023-03-07T14:19:01.629Z,8.43
2023-03-07T14:22:04.755Z,8.80
2023-03-07T14:24:34.291Z,5.40
2023-03-07T14:27:11.921Z,5.93
2023-03-07T14:29:57.214Z,10.97
2023-03-07T14:32:26.492Z,4.00
2023-03-07T14:34:53.413Z,5.77
2023-03-07T14:37:26.596Z,1.47
2023-03-07T14:39:59.390Z,6.47
2023-03-07T14:42:49.931Z,4.10
2023-03-07T14:45:41.927Z,7.50
2023-03-07T14:48:26.936Z,2.50
2023-03-07T14:50:54.277Z,3.80
2023-03-07T14:53:26.843Z,1.70
2023-03-07T14:55:55.274Z,7.37
2023-03-07T14:58:28.272Z,6.10
2023-03-07T15:01:03.193Z,3.70
2023-03-07T15:03:30.795Z,3.17
2023-03-07T15:05:59.732Z,4.13
2023-03-07T15:08:33.295Z,2.07
2023-03-07T15:11:35.458Z,5.73
2023-03-07T15:14:12.997Z,5.00
2023-03-07T15:16:48.343Z,2.97
2023-03-07T15:19:19.218Z,3.47
2023-03-07T15:21:58.016Z,4.00
2023-03-07T15:24:33.654Z,2.87
2023-03-07T15:27:02.625Z,3.10
2023-03-07T15:29:32.816Z,6.87
2023-03-07T15:32:07.244Z,3.43
2023-03-07T15:34:37.257Z,3.30
2023-03-07T15:37:26.938Z,5.47
2023-03-07T15:40:08.993Z,4.33
2023-03-07T15:42:57.235Z,1.73
2023-03-07T15:45:38.482Z,3.87
2023-03-07T15:48:16.827Z,4.67
2023-03-07T15:50:43.572Z,5.13
2023-03-07T15:53:23.307Z,3.23
2023-03-07T15:56:02.475Z,3.80
2023-03-07T15:58:30.369Z,8.57
2023-03-07T16:01:27.742Z,4.97
2023-03-07T16:03:57.429Z,2.93
2023-03-07T16:06:39.978Z,4.10
2023-03-07T16:09:11.473Z,7.17
2023-03-07T16:11:39.157Z,1.87
2023-03-07T16:14:16.251Z,2.20
2023-03-07T16:16:44.425Z,2.67
2023-03-07T16:19:11.282Z,2.70
2023-03-07T16:21:37.996Z,7.03
2023-03-07T16:24:05.076Z,3.37
2023-03-07T16:26:32.160Z,6.40
2023-03-07T16:29:00.540Z,3.00
2023-03-07T16:31:27.480Z,2.60
2023-03-07T16:33:54.936Z,3.97
2023-03-07T16:36:21.671Z,1.77
2023-03-07T16:38:48.539Z,5.67
2023-03-07T16:41:21.266Z,7.33
2023-03-07T16:43:56.273Z,6.60
2023-03-07T16:46:23.913Z,4.03
2023-03-07T16:48:50.673Z,2.50
2023-03-07T16:51:21.716Z,5.23
2023-03-07T16:53:49.968Z,6.17
2023-03-07T16:56:30.724Z,6.37
2023-03-07T16:58:58.249Z,4.33
2023-03-07T17:01:25.001Z,6.63
2023-03-07T17:03:52.251Z,2.77
2023-03-07T17:06:30.477Z,2.30
2023-03-07T17:09:05.319Z,4.70
2023-03-07T17:11:33.712Z,3.10
2023-03-07T17:14:04.262Z,3.27
2023-03-07T17:16:32.750Z,4.73
2023-03-07T17:18:59.463Z,1.40
2023-03-07T17:21:27.999Z,4.10
2023-03-07T17:23:54.789Z,4.80
2023-03-07T17:26:35.157Z,2.10
2023-03-07T17:29:06.275Z,4.23
2023-03-07T17:31:33.005Z,3.10
2023-03-07T17:33:59.757Z,6.07
2023-03-07T17:36:26.711Z,1.80
2023-03-07T17:38:53.477Z,10.73
2023-03-07T17:41:20.251Z,22.77
2023-03-07T17:43:47.006Z,6.93
2023-03-07T17:46:13.712Z,7.23
2023-03-07T17:48:40.516Z,12.57
2023-03-07T17:51:11.292Z,7.83
2023-03-07T17:53:38.611Z,8.47
2023-03-07T17:56:10.749Z,10.90
2023-03-07T17:58:38.529Z,6.03
2023-03-07T18:01:13.491Z,10.37
2023-03-07T18:03:40.642Z,6.13
2023-03-07T18:06:08.075Z,22.03
2023-03-07T18:08:35.423Z,15.23
2023-03-07T18:11:10.959Z,27.50
2023-03-07T18:13:38.621Z,36.60
2023-03-07T18:16:06.446Z,5.13
2023-03-07T18:18:35.951Z,5.63
2023-03-07T18:21:09.216Z,5.53
2023-03-07T18:23:36.956Z,8.33
2023-03-07T18:26:06.648Z,2.97
2023-03-07T18:28:35.833Z,5.80
2023-03-07T18:31:06.837Z,4.97
2023-03-07T18:33:34.901Z,3.47
2023-03-07T18:36:02.232Z,6.40
2023-03-07T18:38:30.365Z,7.37
2023-03-07T18:41:27.692Z,3.93
2023-03-07T18:43:56.416Z,7.87
2023-03-07T18:46:25.148Z,10.43
2023-03-07T18:48:52.412Z,5.63
2023-03-07T18:51:26.642Z,3.43
2023-03-07T18:54:01.447Z,8.93
2023-03-07T18:56:29.761Z,5.87
2023-03-07T18:58:58.925Z,10.20
2023-03-07T19:01:27.356Z,8.90
2023-03-07T19:03:55.774Z,3.43
2023-03-07T19:06:24.617Z,8.93
2023-03-07T19:08:52.008Z,4.27
2023-03-07T19:11:19.344Z,6.80
2023-03-07T19:13:46.339Z,2.53
2023-03-07T19:16:19.233Z,3.90
2023-03-07T19:18:46.797Z,8.40
2023-03-07T19:21:21.771Z,11.70
2023-03-07T19:23:49.493Z,5.53
2023-03-07T19:26:18.285Z,11.60
2023-03-07T19:28:46.903Z,5.83
2023-03-07T19:31:22.628Z,5.37
2023-03-07T19:33:50.833Z,9.23
2023-03-07T19:36:28.741Z,6.33
2023-03-07T19:38:59.196Z,6.53
2023-03-07T19:41:28.311Z,5.27
2023-03-07T19:43:57.404Z,11.13
2023-03-07T19:46:24.901Z,5.37
2023-03-07T19:48:51.718Z,8.13
2023-03-07T19:51:20.970Z,10.50
2023-03-07T19:53:48.240Z,9.30
2023-03-07T19:56:17.194Z,8.60
2023-03-07T19:58:43.963Z,5.20
2023-03-07T20:01:14.004Z,6.13
2023-03-07T20:03:41.137Z,2.93
2023-03-07T20:06:11.404Z,7.10
2023-03-07T20:08:41.519Z,5.10
2023-03-07T20:11:20.267Z,7.17
2023-03-07T20:13:48.386Z,5.43
2023-03-07T20:16:17.422Z,4.37
2023-03-07T20:18:48.719Z,6.63
2023-03-07T20:21:17.127Z,13.03
2023-03-07T20:23:46.129Z,7.13
2023-03-07T20:26:19.309Z,6.80
2023-03-07T20:28:46.099Z,2.47
2023-03-07T20:31:13.550Z,4.07
2023-03-07T20:33:46.083Z,6.97
2023-03-07T20:36:22.300Z,7.33
2023-03-07T20:38:54.327Z,7.43
2023-03-07T20:41:24.096Z,9.37
2023-03-07T20:43:52.147Z,5.70
2023-03-07T20:46:21.097Z,5.57
2023-03-07T20:48:48.645Z,4.17
2023-03-07T20:51:19.926Z,6.53
2023-03-07T20:53:47.771Z,9.27
2023-03-07T20:56:16.399Z,7.23
2023-03-07T20:58:43.433Z,4.77
2023-03-07T21:01:11.774Z,4.83
2023-03-07T21:03:38.714Z,2.67
2023-03-07T21:06:07.066Z,5.50
2023-03-07T21:08:36.891Z,8.67
2023-03-07T21:11:07.490Z,2.67
2023-03-07T21:13:38.137Z,8.63
2023-03-07T21:16:10.360Z,6.83
2023-03-07T21:18:37.624Z,11.00
2023-03-07T21:21:08.343Z,5.70
2023-03-07T21:23:36.019Z,6.17
2023-03-07T21:26:19.114Z,7.53
2023-03-07T21:28:46.828Z,2.57
2023-03-07T21:31:13.946Z,7.47
2023-03-07T21:33:42.498Z,5.93
2023-03-07T21:36:11.126Z,4.47
2023-03-07T21:38:40.102Z,3.37
2023-03-07T21:41:07.324Z,6.70
2023-03-07T21:43:34.277Z,2.57
2023-03-07T21:46:06.896Z,2.67
2023-03-07T21:48:34.124Z,6.67
2023-03-07T21:51:01.695Z,6.57
2023-03-07T21:53:28.878Z,6.20
2023-03-07T21:56:01.814Z,5.40
2023-03-07T21:58:30.048Z,2.97
2023-03-07T22:00:57.606Z,5.33
2023-03-07T22:03:26.595Z,3.27
2023-03-07T22:05:54.881Z,4.63
2023-03-07T22:08:22.957Z,9.37
2023-03-07T22:10:57.838Z,4.57
2023-03-07T22:13:24.581Z,1.87
2023-03-07T22:15:55.114Z,2.63
2023-03-07T22:18:21.830Z,6.33
2023-03-07T22:20:48.662Z,4.40
2023-03-07T22:23:15.410Z,7.57
2023-03-07T22:25:42.161Z,3.60
2023-03-07T22:28:08.991Z,1.73
2023-03-07T22:30:36.044Z,5.83
2023-03-07T22:33:02.845Z,1.63
2023-03-07T22:35:29.536Z,1.77
2023-03-07T22:37:56.315Z,1.93
2023-03-07T22:40:23.093Z,3.30
2023-03-07T22:42:52.453Z,4.63
2023-03-07T22:45:19.289Z,1.87
2023-03-07T22:47:45.967Z,2.83
2023-03-07T22:50:12.757Z,7.77
2023-03-07T22:52:39.555Z,1.70
2023-03-07T22:55:06.421Z,6.13
2023-03-07T22:57:33.247Z,3.10
2023-03-07T22:59:59.972Z,13.63
2023-03-07T23:02:26.629Z,2.90
2023-03-07T23:04:53.473Z,3.80
2023-03-07T23:07:20.159Z,5.70
2023-03-07T23:09:46.887Z,8.70
2023-03-07T23:12:13.580Z,8.13
2023-03-07T23:14:40.435Z,9.63
2023-03-07T23:17:07.161Z,7.00
2023-03-07T23:19:33.995Z,7.30
2023-03-07T23:22:00.785Z,5.53
2023-03-07T23:24:27.502Z,5.27
2023-03-07T23:26:54.229Z,5.43
2023-03-07T23:29:20.944Z,4.87
2023-03-07T23:31:47.692Z,2.77
2023-03-07T23:34:19.636Z,2.00
2023-03-07T23:36:46.596Z,3.43
2023-03-07T23:39:13.419Z,4.10
2023-03-07T23:41:40.076Z,5.40
2023-03-07T23:44:06.844Z,4.50
2023-03-07T23:46:33.857Z,3.37
2023-03-07T23:49:01.018Z,1.70
2023-03-07T23:51:28.046Z,2.87
2023-03-07T23:53:54.769Z,7.70
2023-03-07T23:56:21.605Z,2.20
2023-03-07T23:58:50.247Z,2.33
